Hamilton, Washington
Current Conditions -  °F | °C
As of 7:15 PM on Wednesday 22 Oct 2014 (Local Time) from KAWO Reporting Station
Overcast Overcast  
Wind Chill: 55°   Ceiling: 4400
Heat Index: 55°   Visibility: 10mi
Dew Point: 48°   Wind: 17mph
Humidity: 77%   Direction: 130°SE
Pressure: 29.57"   Gusts: NA
Location:  48.52°N, 121.99°W
Report Text: KAWO 230215Z AUTO 13015KT 10SM BKN044 BKN055 OVC065 13/09 A2957 RMK AO1
Loading
Personal Weather Stations






























Interactive Weather Map
Tropical Storm Tracking
New forecast layout! Learn more

10-Day Weather Forecast

Advertisements
Track Severe Weather on mobile